Time;durP1;ratioP1;P1;durP2;ratioP2;P2;SDS_P1;SDS_P2;PMS_P1;PMS_P2;Temp;Humidity;BMP_temperature;BMP_pressure;BME280_temperature;BME280_humidity;BME280_pressure;Samples;Min_cycle;Max_cycle;Signal;HPM_P1;HPM_P2
2021/09/30 00:02:10;;;;;;;2.33;1.20;;;;;;;9.08;70.10;99930.19;2622280;54;20045;-70
2021/09/30 00:04:40;;;;;;;2.65;1.48;;;;;;;8.99;70.23;99927.66;2623062;54;20034;-71
2021/09/30 00:07:10;;;;;;;7.07;1.92;;;;;;;8.95;70.11;99924.50;2622721;47;20035;-71
2021/09/30 00:09:44;;;;;;;7.18;1.85;;;;;;;8.95;70.10;99928.94;2623791;54;20103;-70
2021/09/30 00:12:19;;;;;;;3.50;1.42;;;;;;;8.94;70.20;99933.41;2623125;54;20018;-71
2021/09/30 00:14:53;;;;;;;3.60;1.60;;;;;;;8.91;70.09;99936.34;2623448;54;20034;-71
2021/09/30 00:17:52;;;;;;;2.88;1.50;;;;;;;8.88;70.61;99934.81;2623218;47;20038;-70
2021/09/30 00:34:02;;;;;;;4.22;1.40;;;;;;;8.52;71.64;99956.94;2625648;54;21124;-70
2021/09/30 00:42:02;;;;;;;1.50;1.30;;;;;;;8.52;72.10;99956.94;2617576;54;20030;-65
2021/09/30 00:47:33;;;;;;;2.72;1.50;;;;;;;8.56;72.18;99945.13;2618619;54;20026;-65
2021/09/30 00:50:15;;;;;;;4.75;1.58;;;;;;;8.57;72.24;99954.66;2618613;54;20542;-65
2021/09/30 00:52:52;;;;;;;3.30;1.48;;;;;;;8.59;71.79;99955.34;2618590;54;20057;-65
2021/09/30 00:55:54;;;;;;;2.60;1.75;;;;;;;8.56;72.22;99958.28;2618432;54;20038;-65
2021/09/30 02:19:50;;;;;;;4.78;2.33;;;;;;;8.36;73.71;99994.47;2617538;54;20026;-64
2021/09/30 02:22:45;;;;;;;2.65;1.80;;;;;;;8.34;73.85;100002.53;2617714;47;20034;-64
2021/09/30 02:25:31;;;;;;;2.70;1.80;;;;;;;8.29;73.97;99999.53;2617685;54;20570;-64
2021/09/30 02:59:04;;;;;;;6.25;2.88;;;;;;;8.01;74.11;100026.84;2617522;47;20582;-64
2021/09/30 03:01:35;;;;;;;5.88;2.58;;;;;;;7.99;74.26;100029.59;2617595;54;20046;-65
2021/09/30 03:04:07;;;;;;;3.72;2.38;;;;;;;7.98;74.37;100037.66;2617330;54;20075;-64
2021/09/30 03:06:40;;;;;;;6.22;2.60;;;;;;;7.94;74.54;100032.69;2618239;54;20022;-64
2021/09/30 03:09:11;;;;;;;3.13;2.40;;;;;;;7.93;74.97;100030.22;2617495;54;20039;-64
2021/09/30 03:11:49;;;;;;;5.10;2.75;;;;;;;7.89;74.93;100032.31;2617387;54;20039;-64
2021/09/30 03:14:21;;;;;;;4.50;2.38;;;;;;;7.88;75.10;100030.66;2617469;54;20030;-64
2021/09/30 03:16:52;;;;;;;3.33;2.60;;;;;;;7.90;74.79;100038.38;2617540;54;20518;-64
2021/09/30 03:19:49;;;;;;;7.05;3.33;;;;;;;7.85;75.17;100033.56;2618163;54;20023;-64
2021/09/30 03:22:22;;;;;;;6.88;3.22;;;;;;;7.83;75.21;100043.41;2618590;47;20027;-64
2021/09/30 03:24:53;;;;;;;8.60;4.30;;;;;;;7.81;75.13;100040.09;2618659;39;20426;-64
2021/09/30 03:27:23;;;;;;;7.93;4.25;;;;;;;7.82;75.07;100036.47;2618958;54;20542;-64
2021/09/30 03:29:53;;;;;;;5.47;3.50;;;;;;;7.80;75.47;100043.72;2618387;47;20121;-64
2021/09/30 03:32:24;;;;;;;4.90;3.70;;;;;;;7.79;75.47;100044.66;2618267;54;20022;-64
2021/09/30 03:35:05;;;;;;;6.68;3.85;;;;;;;7.82;75.35;100035.66;2618029;54;20034;-64
2021/09/30 03:37:37;;;;;;;6.20;4.20;;;;;;;7.78;75.07;100029.84;2618422;47;20534;-64
2021/09/30 03:40:09;;;;;;;5.45;4.30;;;;;;;7.77;75.66;100037.91;2618208;47;20540;-64
2021/09/30 03:42:39;;;;;;;6.03;4.80;;;;;;;7.68;75.74;100034.31;2618212;50;20027;-64
2021/09/30 03:45:12;;;;;;;9.10;4.72;;;;;;;7.66;76.04;100034.44;2618003;54;20567;-64
2021/09/30 03:47:52;;;;;;;10.75;5.45;;;;;;;7.63;75.78;100036.53;2618365;47;20074;-64
2021/09/30 03:50:23;;;;;;;8.93;5.45;;;;;;;7.61;76.26;100036.69;2618107;47;20030;-64
2021/09/30 03:53:01;;;;;;;8.93;5.20;;;;;;;7.61;76.20;100027.97;2618306;54;20034;-64
2021/09/30 03:55:42;;;;;;;8.80;5.40;;;;;;;7.62;76.19;100027.00;2618751;47;20039;-64
2021/09/30 04:00:54;;;;;;;7.78;5.63;;;;;;;7.65;76.29;100022.28;2618986;47;20546;-64
2021/09/30 04:03:27;;;;;;;9.93;7.03;;;;;;;7.64;76.14;100019.78;2619051;47;20039;-64
2021/09/30 04:06:01;;;;;;;8.18;6.90;;;;;;;7.62;76.25;100025.19;2619077;54;20034;-64
2021/09/30 04:08:35;;;;;;;7.32;5.63;;;;;;;7.60;76.46;100034.22;2618880;47;20799;-64
2021/09/30 04:11:06;;;;;;;7.00;6.27;;;;;;;7.56;76.80;100038.09;2618860;47;20026;-64
2021/09/30 04:13:37;;;;;;;10.02;5.90;;;;;;;7.59;76.60;100029.91;2619003;47;20415;-64
2021/09/30 04:16:07;;;;;;;7.43;5.97;;;;;;;7.63;76.69;100036.53;2619864;39;20411;-64
2021/09/30 04:18:37;;;;;;;7.65;6.43;;;;;;;7.64;76.89;100041.69;2619028;54;20553;-64
2021/09/30 04:21:07;;;;;;;9.52;6.28;;;;;;;7.62;76.58;100046.25;2620534;54;20066;-64
2021/09/30 04:23:39;;;;;;;8.63;5.78;;;;;;;7.60;77.05;100055.28;2622113;54;20031;-64
2021/09/30 04:26:09;;;;;;;8.10;6.65;;;;;;;7.58;76.59;100049.31;2622096;54;20027;-64
2021/09/30 04:28:38;;;;;;;9.75;6.13;;;;;;;7.56;77.08;100056.53;2620905;54;20046;-64
2021/09/30 04:31:11;;;;;;;9.05;6.72;;;;;;;7.52;77.21;100049.88;2620242;47;20085;-65
2021/09/30 04:33:48;;;;;;;11.68;7.20;;;;;;;7.55;77.34;100057.47;2619420;47;20034;-64
2021/09/30 04:36:18;;;;;;;10.43;6.68;;;;;;;7.56;77.01;100054.72;2619563;54;20057;-63
2021/09/30 04:38:52;;;;;;;8.50;6.70;;;;;;;7.60;77.31;100060.53;2619259;47;20030;-64
2021/09/30 04:41:22;;;;;;;8.75;5.60;;;;;;;7.62;76.94;100066.47;2619822;54;20301;-64
2021/09/30 04:43:53;;;;;;;7.32;6.00;;;;;;;7.58;76.65;100073.81;2618930;47;20050;-64
2021/09/30 04:46:23;;;;;;;8.05;5.85;;;;;;;7.54;76.72;100074.25;2619055;47;20030;-65
2021/09/30 04:49:22;;;;;;;9.30;5.53;;;;;;;7.53;76.28;100078.69;2620434;47;20046;-65
2021/09/30 04:51:52;;;;;;;7.50;4.30;;;;;;;7.47;75.86;100075.78;2621262;51;20065;-65
2021/09/30 04:54:24;;;;;;;5.70;4.80;;;;;;;7.43;75.82;100075.25;2621176;47;20033;-65
2021/09/30 04:56:54;;;;;;;8.35;5.20;;;;;;;7.41;75.71;100075.38;2620907;47;20032;-65
2021/09/30 04:59:30;;;;;;;7.00;4.70;;;;;;;7.34;75.97;100070.81;2619474;47;20027;-65
2021/09/30 05:02:29;;;;;;;6.88;4.78;;;;;;;7.29;76.02;100076.50;2618333;46;20034;-65
2021/09/30 05:04:59;;;;;;;6.35;4.50;;;;;;;7.28;76.03;100071.41;2619130;39;20425;-64
2021/09/30 05:07:30;;;;;;;6.63;4.32;;;;;;;7.22;75.63;100067.50;2618815;54;20079;-64
2021/09/30 05:10:04;;;;;;;10.77;4.68;;;;;;;7.13;75.74;100068.34;2618241;54;20038;-64
2021/09/30 05:12:34;;;;;;;9.27;5.95;;;;;;;7.14;76.29;100073.50;2618558;54;20030;-64
2021/09/30 05:15:04;;;;;;;6.18;4.68;;;;;;;7.21;76.01;100084.25;2618517;46;20045;-64
2021/09/30 05:17:34;;;;;;;8.82;5.40;;;;;;;7.24;76.07;100081.34;2618355;54;20125;-64
2021/09/30 05:20:05;;;;;;;6.68;5.05;;;;;;;7.28;75.78;100088.00;2617929;54;20173;-64
2021/09/30 05:22:34;;;;;;;9.23;4.47;;;;;;;7.32;75.92;100091.19;2618816;54;20030;-64
2021/09/30 05:25:07;;;;;;;7.38;4.63;;;;;;;7.29;75.29;100092.28;2618636;47;20061;-64
2021/09/30 05:27:38;;;;;;;11.18;5.20;;;;;;;7.25;75.23;100092.72;2618804;54;20118;-65
2021/09/30 05:30:09;;;;;;;6.00;4.10;;;;;;;7.19;75.06;100102.00;2618613;54;20066;-64
2021/09/30 05:32:39;;;;;;;7.93;4.55;;;;;;;7.15;75.23;100098.81;2619666;39;20437;-64
2021/09/30 05:35:18;;;;;;;7.47;4.72;;;;;;;7.13;75.40;100094.66;2618094;47;20054;-64
2021/09/30 05:37:51;;;;;;;9.50;5.80;;;;;;;7.14;75.24;100097.16;2618373;47;20023;-64
2021/09/30 05:40:27;;;;;;;5.80;4.43;;;;;;;7.12;75.17;100095.63;2617723;47;20041;-64
2021/09/30 05:42:59;;;;;;;7.97;5.28;;;;;;;7.16;75.04;100095.19;2617725;47;20015;-64
2021/09/30 05:45:31;;;;;;;10.98;6.03;;;;;;;7.18;75.11;100092.41;2617792;47;20027;-64
2021/09/30 05:48:05;;;;;;;9.10;6.20;;;;;;;7.20;75.05;100090.50;2617646;47;20034;-65
2021/09/30 05:50:35;;;;;;;9.10;5.70;;;;;;;7.12;74.68;100093.81;2617796;54;20038;-65
2021/09/30 05:53:27;;;;;;;7.75;5.20;;;;;;;7.04;74.70;100095.47;2618333;47;20054;-65
2021/09/30 05:56:10;;;;;;;8.77;5.00;;;;;;;7.02;74.58;100089.53;2618252;47;20039;-64
2021/09/30 05:58:40;;;;;;;11.00;5.30;;;;;;;7.00;74.85;100088.84;2618173;54;20039;-65
2021/09/30 06:01:12;;;;;;;10.10;6.18;;;;;;;7.09;75.13;100095.91;2618839;54;20027;-65
2021/09/30 06:12:21;;;;;;;8.82;5.13;;;;;;;7.41;74.51;100114.00;2617393;54;20637;-63
2021/09/30 06:14:52;;;;;;;8.00;6.55;;;;;;;7.45;74.61;100108.31;2618243;54;20629;-63
2021/09/30 06:17:22;;;;;;;9.32;5.85;;;;;;;7.48;74.34;100106.41;2617754;47;20082;-64
2021/09/30 06:19:56;;;;;;;9.73;7.75;;;;;;;7.44;74.52;100105.84;2617816;54;20127;-64
2021/09/30 06:22:29;;;;;;;7.45;6.45;;;;;;;7.50;74.71;100114.97;2618594;47;20042;-63
2021/09/30 06:24:59;;;;;;;8.35;5.88;;;;;;;7.59;74.74;100109.72;2618069;54;20049;-64
2021/09/30 06:27:37;;;;;;;9.48;6.63;;;;;;;7.66;74.74;100109.97;2618451;47;20026;-64
2021/09/30 06:30:08;;;;;;;13.50;6.72;;;;;;;7.74;74.27;100109.25;2618214;47;20037;-64
2021/09/30 06:32:41;;;;;;;10.77;6.68;;;;;;;7.75;74.46;100113.53;2617833;54;20026;-64
2021/09/30 06:35:43;;;;;;;11.63;5.95;;;;;;;7.82;74.10;100115.47;2618408;54;20035;-64
2021/09/30 06:38:12;;;;;;;9.35;6.38;;;;;;;7.92;73.77;100112.81;2618360;47;20054;-64
2021/09/30 06:40:42;;;;;;;11.75;7.40;;;;;;;8.01;73.68;100119.84;2618310;47;20027;-64
2021/09/30 06:43:15;;;;;;;12.82;6.80;;;;;;;8.05;73.95;100125.66;2618081;39;20447;-64
2021/09/30 06:46:03;;;;;;;11.18;6.90;;;;;;;8.10;73.64;100126.06;2618663;54;20037;-64
2021/09/30 06:48:45;;;;;;;11.77;6.72;;;;;;;8.15;73.47;100122.00;2617875;47;20027;-64
2021/09/30 06:51:26;;;;;;;14.05;6.53;;;;;;;8.18;73.86;100132.25;2618588;54;20038;-64
2021/09/30 06:53:56;;;;;;;7.25;6.05;;;;;;;8.23;73.86;100123.09;2619351;39;20329;-64
2021/09/30 06:56:48;;;;;;;9.63;6.68;;;;;;;8.27;73.33;100133.19;2619432;54;20078;-64
2021/09/30 06:59:57;;;;;;;14.05;6.68;;;;;;;8.34;73.10;100125.53;2618933;54;20048;-64
2021/09/30 07:02:50;;;;;;;8.52;6.80;;;;;;;8.36;73.51;100134.94;2618396;54;20581;-64
2021/09/30 07:05:46;;;;;;;9.85;6.80;;;;;;;8.33;73.21;100134.44;2618958;54;20058;-64
2021/09/30 07:08:21;;;;;;;9.80;6.63;;;;;;;8.39;73.48;100137.31;2619283;47;20166;-63
2021/09/30 07:10:50;;;;;;;10.40;6.85;;;;;;;8.34;73.32;100147.44;2620736;39;20497;-64
2021/09/30 07:13:21;;;;;;;8.43;6.15;;;;;;;8.32;73.40;100141.47;2619129;47;20027;-64
2021/09/30 07:15:54;;;;;;;10.50;7.13;;;;;;;8.34;73.64;100143.97;2619327;54;20022;-64
2021/09/30 07:18:24;;;;;;;10.77;6.50;;;;;;;8.36;73.60;100142.84;2619101;54;20026;-64
2021/09/30 07:20:59;;;;;;;10.85;6.63;;;;;;;8.46;73.16;100142.84;2619088;54;20037;-64
2021/09/30 07:23:29;;;;;;;14.88;7.07;;;;;;;8.65;73.28;100134.00;2618730;54;20041;-64
2021/09/30 07:26:00;;;;;;;11.35;7.35;;;;;;;8.74;72.57;100132.31;2618022;54;20034;-64
2021/09/30 07:28:30;;;;;;;10.95;8.07;;;;;;;8.88;72.71;100126.50;2618169;54;20030;-65
2021/09/30 07:31:02;;;;;;;10.73;7.40;;;;;;;9.10;72.79;100119.94;2618269;54;20034;-64
2021/09/30 07:33:32;;;;;;;13.23;7.03;;;;;;;9.30;72.49;100131.19;2618790;31;20427;-64
2021/09/30 07:36:02;;;;;;;7.13;5.95;;;;;;;9.35;72.73;100128.94;2617773;54;20095;-64
2021/09/30 07:38:32;;;;;;;11.10;6.25;;;;;;;9.36;72.59;100133.22;2617953;54;20035;-64
2021/09/30 07:41:02;;;;;;;8.23;6.03;;;;;;;9.41;72.74;100129.13;2617961;54;20034;-65
2021/09/30 07:43:32;;;;;;;8.13;6.43;;;;;;;9.59;72.33;100123.84;2617115;54;20030;-65
2021/09/30 07:46:06;;;;;;;10.10;6.38;;;;;;;9.74;71.81;100134.66;2618228;54;20042;-64
2021/09/30 07:48:36;;;;;;;8.65;5.47;;;;;;;9.85;71.96;100136.22;2618470;54;20133;-63
2021/09/30 07:51:06;;;;;;;10.00;5.28;;;;;;;10.04;71.99;100137.81;2617653;47;20035;-64
2021/09/30 07:53:36;;;;;;;8.75;5.63;;;;;;;10.12;72.04;100136.06;2617556;54;20034;-64
2021/09/30 07:56:06;;;;;;;5.65;4.90;;;;;;;10.11;71.25;100131.75;2618051;54;20026;-64
2021/09/30 07:58:36;;;;;;;13.25;5.50;;;;;;;10.09;71.92;100132.91;2617838;54;20022;-64
2021/09/30 08:01:08;;;;;;;5.70;5.10;;;;;;;10.11;71.72;100144.13;2618469;54;20043;-64
2021/09/30 08:03:38;;;;;;;6.28;4.72;;;;;;;10.15;71.81;100141.00;2618622;54;20114;-64
2021/09/30 08:06:08;;;;;;;8.02;5.57;;;;;;;10.18;71.09;100134.59;2619309;54;20030;-64
2021/09/30 08:08:55;;;;;;;6.90;5.35;;;;;;;10.14;70.89;100131.44;2619166;54;20034;-64
2021/09/30 08:11:27;;;;;;;11.20;5.38;;;;;;;10.15;71.27;100138.38;2618778;54;20042;-64
2021/09/30 08:13:57;;;;;;;11.07;5.55;;;;;;;10.21;71.45;100138.75;2618863;54;20053;-64
2021/09/30 08:16:29;;;;;;;12.77;4.85;;;;;;;10.22;71.32;100124.53;2619163;54;20038;-64
2021/09/30 08:19:03;;;;;;;10.07;4.80;;;;;;;10.25;70.96;100116.34;2619031;54;20031;-63
2021/09/30 08:21:32;;;;;;;9.48;5.20;;;;;;;10.31;71.47;100121.81;2619249;39;20472;-63
2021/09/30 08:24:02;;;;;;;7.28;4.45;;;;;;;10.37;71.02;100128.28;2618546;54;20052;-63
2021/09/30 08:26:31;;;;;;;8.80;4.55;;;;;;;10.40;70.76;100127.94;2618800;54;20038;-64
2021/09/30 08:29:01;;;;;;;10.70;5.05;;;;;;;10.45;70.54;100136.25;2618775;54;20622;-64
2021/09/30 08:31:33;;;;;;;9.45;4.22;;;;;;;10.54;70.72;100127.34;2619351;54;20070;-64
2021/09/30 08:34:03;;;;;;;5.05;3.65;;;;;;;10.59;70.37;100124.22;2618707;54;20042;-64
2021/09/30 08:36:33;;;;;;;7.60;4.18;;;;;;;10.62;70.30;100121.28;2618648;54;20031;-64
2021/09/30 08:39:06;;;;;;;8.02;3.72;;;;;;;10.72;69.86;100123.78;2618441;54;20038;-64
2021/09/30 08:41:35;;;;;;;6.50;4.60;;;;;;;10.81;70.23;100120.97;2618133;54;20542;-64
2021/09/30 08:44:06;;;;;;;5.43;3.55;;;;;;;10.93;69.66;100123.31;2617759;54;20026;-64
2021/09/30 08:46:38;;;;;;;7.25;4.30;;;;;;;11.11;69.94;100131.97;2618767;54;20038;-64
2021/09/30 08:49:08;;;;;;;12.85;4.47;;;;;;;11.25;69.24;100125.19;2618566;54;20045;-64
2021/09/30 08:51:38;;;;;;;7.10;4.40;;;;;;;11.41;68.73;100125.19;2618650;54;20046;-64
2021/09/30 08:54:08;;;;;;;29.77;16.65;;;;;;;11.51;68.60;100127.66;2618481;54;20078;-64
2021/09/30 08:56:38;;;;;;;19.58;10.00;;;;;;;11.73;68.36;100128.81;2618974;54;20034;-64
2021/09/30 08:59:18;;;;;;;5.15;3.25;;;;;;;11.78;67.96;100110.59;2618719;54;20030;-64
2021/09/30 09:02:10;;;;;;;11.13;5.57;;;;;;;11.81;67.40;100120.84;2618793;54;20058;-64
2021/09/30 09:04:55;;;;;;;8.00;4.95;;;;;;;11.79;67.15;100126.31;2618500;54;20045;-64
2021/09/30 09:07:27;;;;;;;4.32;3.08;;;;;;;11.76;67.21;100123.19;2618629;54;20156;-64
2021/09/30 09:10:02;;;;;;;6.85;3.38;;;;;;;11.85;67.46;100116.91;2617960;54;20106;-64
2021/09/30 09:12:33;;;;;;;7.25;3.03;;;;;;;12.03;66.75;100111.38;2618605;54;20118;-64
2021/09/30 09:15:04;;;;;;;7.45;2.80;;;;;;;12.10;66.56;100110.53;2617863;47;20030;-64
2021/09/30 09:17:40;;;;;;;6.18;2.90;;;;;;;12.13;66.69;100099.59;2618385;54;20597;-64
2021/09/30 09:20:10;;;;;;;5.88;3.50;;;;;;;12.07;66.38;100102.09;2618679;54;20046;-64
2021/09/30 09:22:41;;;;;;;6.93;3.45;;;;;;;12.19;66.07;100107.84;2618193;47;20038;-64
2021/09/30 09:25:14;;;;;;;5.82;2.92;;;;;;;12.16;66.15;100103.72;2618440;54;20026;-64
2021/09/30 09:27:53;;;;;;;7.97;3.38;;;;;;;12.20;65.90;100105.03;2618217;47;20035;-64
2021/09/30 09:30:36;;;;;;;9.00;2.80;;;;;;;12.34;65.18;100103.50;2618573;54;20039;-64
2021/09/30 09:33:12;;;;;;;7.75;2.20;;;;;;;12.53;65.17;100099.59;2618452;39;20419;-64
2021/09/30 09:35:55;;;;;;;7.22;2.40;;;;;;;12.68;64.04;100105.00;2618350;39;20446;-64
2021/09/30 09:38:28;;;;;;;3.83;1.75;;;;;;;12.80;64.09;100109.72;2618544;54;20558;-64
2021/09/30 09:41:05;;;;;;;7.13;2.27;;;;;;;12.84;63.55;100103.06;2618635;54;20122;-64
2021/09/30 09:43:42;;;;;;;4.60;1.90;;;;;;;12.84;63.18;100102.25;2618665;54;20027;-64
2021/09/30 09:46:17;;;;;;;4.50;1.90;;;;;;;12.92;63.35;100099.53;2618584;54;20057;-64
2021/09/30 09:48:59;;;;;;;;;;;;;;;12.88;63.27;100101.72;2618585;54;20031;-65
2021/09/30 09:51:36;;;;;;;7.35;2.47;;;;;;;13.00;62.79;100101.31;2618774;54;19943;-64
2021/09/30 09:54:14;;;;;;;3.70;1.77;;;;;;;13.08;62.75;100115.34;2618392;54;20034;-64
2021/09/30 09:56:45;;;;;;;4.97;1.67;;;;;;;13.22;62.85;100103.13;2617906;47;20049;-65
2021/09/30 09:59:16;;;;;;;4.90;1.70;;;;;;;13.37;61.81;100098.72;2618621;39;20399;-64
2021/09/30 10:01:47;;;;;;;5.85;2.17;;;;;;;13.55;61.02;100097.56;2619440;54;20529;-65
2021/09/30 10:04:19;;;;;;;6.13;2.20;;;;;;;13.50;60.88;100097.28;2618844;54;20022;-65
2021/09/30 10:06:49;;;;;;;4.80;1.80;;;;;;;13.58;60.32;100094.56;2618254;54;20033;-65
2021/09/30 10:09:19;;;;;;;7.82;1.95;;;;;;;13.68;60.73;100100.44;2619141;54;20027;-65
2021/09/30 10:11:49;;;;;;;4.35;1.52;;;;;;;13.81;59.95;100089.19;2619587;54;20030;-64
2021/09/30 10:14:22;;;;;;;7.13;1.58;;;;;;;13.82;59.25;100093.50;2619716;54;20063;-64
2021/09/30 10:16:52;;;;;;;7.07;3.65;;;;;;;13.79;59.67;100092.00;2619702;54;20041;-64
2021/09/30 10:19:26;;;;;;;5.70;1.80;;;;;;;13.87;59.00;100091.94;2620023;54;20038;-64
2021/09/30 10:21:56;;;;;;;6.88;1.73;;;;;;;14.00;58.79;100093.13;2619827;54;20042;-64
2021/09/30 10:24:27;;;;;;;3.88;1.60;;;;;;;14.11;57.86;100093.50;2619604;54;20038;-64
2021/09/30 10:27:02;;;;;;;4.43;1.80;;;;;;;14.26;57.80;100088.19;2618340;54;20035;-64
2021/09/30 10:29:43;;;;;;;5.97;1.45;;;;;;;14.35;55.75;100091.56;2617743;47;20081;-64
2021/09/30 10:32:13;;;;;;;5.22;2.72;;;;;;;14.44;55.83;100084.28;2618559;54;20043;-64
2021/09/30 10:34:48;;;;;;;4.47;1.40;;;;;;;14.68;55.51;100080.50;2618385;54;20057;-64
2021/09/30 10:37:21;;;;;;;3.13;1.33;;;;;;;14.93;55.31;100073.81;2618449;54;20158;-64
2021/09/30 10:40:15;;;;;;;3.35;1.60;;;;;;;14.76;54.68;100075.06;2617396;51;20059;-65
2021/09/30 10:42:53;;;;;;;;;;;;;;;14.59;54.03;100077.16;2618039;54;20041;-65
2021/09/30 10:45:24;;;;;;;7.97;1.45;;;;;;;14.54;53.99;100067.06;2617723;54;19946;-65
2021/09/30 10:47:55;;;;;;;3.30;1.40;;;;;;;14.56;54.20;100069.53;2618122;54;20045;-64
2021/09/30 10:50:46;;;;;;;4.15;1.92;;;;;;;14.64;54.21;100073.91;2618126;54;20030;-65
2021/09/30 10:53:16;;;;;;;5.70;1.98;;;;;;;14.56;54.36;100064.22;2618005;54;20530;-64
2021/09/30 10:55:46;;;;;;;5.55;1.70;;;;;;;14.49;54.22;100068.63;2617873;54;20026;-65
2021/09/30 10:58:24;;;;;;;3.67;1.52;;;;;;;14.50;53.87;100068.44;2618137;54;20026;-65
2021/09/30 11:01:01;;;;;;;4.22;1.90;;;;;;;14.52;53.95;100061.09;2618111;54;20026;-65
2021/09/30 11:03:31;;;;;;;3.78;1.40;;;;;;;14.35;54.06;100063.13;2617942;54;20022;-65
2021/09/30 11:06:24;;;;;;;5.22;1.65;;;;;;;14.39;54.22;100060.91;2617778;54;20037;-65
2021/09/30 11:09:21;;;;;;;5.37;2.10;;;;;;;14.64;53.62;100063.28;2617996;54;20658;-65
2021/09/30 11:11:52;;;;;;;5.28;1.38;;;;;;;14.73;53.70;100067.47;2616704;54;20282;-65
2021/09/30 11:14:27;;;;;;;4.75;1.30;;;;;;;14.61;52.49;100059.13;2617726;54;20033;-65
2021/09/30 11:16:58;;;;;;;3.28;1.85;;;;;;;14.37;51.71;100065.63;2617731;47;20039;-65
2021/09/30 11:19:47;;;;;;;3.83;1.10;;;;;;;14.32;51.80;100066.13;2617452;54;20126;-65
2021/09/30 11:22:39;;;;;;;4.88;1.20;;;;;;;14.46;51.57;100058.34;2617913;54;20031;-64
2021/09/30 11:25:09;;;;;;;3.13;1.95;;;;;;;14.59;51.59;100059.34;2617381;47;20297;-64
2021/09/30 11:27:39;;;;;;;4.22;1.50;;;;;;;14.61;50.88;100048.50;2618538;54;20041;-64
2021/09/30 11:30:26;;;;;;;5.00;1.38;;;;;;;14.76;50.67;100043.94;2618352;54;20038;-64
2021/09/30 11:33:01;;;;;;;6.07;1.60;;;;;;;14.88;50.03;100030.97;2618154;54;20038;-64
2021/09/30 11:35:32;;;;;;;5.18;1.35;;;;;;;15.05;50.14;100037.66;2620044;54;20030;-65
2021/09/30 11:38:05;;;;;;;4.70;2.35;;;;;;;15.20;49.28;100024.28;2619782;54;20033;-64
2021/09/30 11:40:34;;;;;;;6.03;1.58;;;;;;;15.23;47.99;100025.75;2620480;54;20042;-65
2021/09/30 11:43:13;;;;;;;;;;;;;;;15.45;48.46;100019.34;2620473;54;20155;-65
2021/09/30 11:45:43;;;;;;;2.10;1.23;;;;;;;15.63;47.92;100013.50;2620957;54;19946;-65
2021/09/30 11:48:13;;;;;;;3.83;1.13;;;;;;;15.49;47.53;100014.44;2619788;54;20046;-65
2021/09/30 11:50:46;;;;;;;4.50;1.48;;;;;;;15.22;48.27;100018.75;2619634;54;20035;-65
2021/09/30 11:53:19;;;;;;;3.55;1.20;;;;;;;14.96;48.05;100003.38;2620881;54;20022;-65
2021/09/30 11:55:50;;;;;;;3.70;1.60;;;;;;;15.01;48.71;100001.78;2620422;54;20164;-65
2021/09/30 11:58:20;;;;;;;3.42;1.40;;;;;;;15.16;48.03;99995.56;2620184;54;20025;-65
2021/09/30 12:00:50;;;;;;;3.38;1.42;;;;;;;15.32;48.07;99993.44;2618348;46;20050;-65
2021/09/30 12:03:23;;;;;;;2.88;1.20;;;;;;;15.43;47.70;99984.09;2618459;46;20070;-65
2021/09/30 12:05:59;;;;;;;5.95;1.40;;;;;;;15.50;48.17;99978.78;2618444;54;20029;-65
2021/09/30 12:08:31;;;;;;;5.78;1.60;;;;;;;15.52;48.61;99979.44;2621601;54;20037;-65
2021/09/30 12:11:04;;;;;;;3.72;1.50;;;;;;;15.42;48.77;99984.25;2621188;47;20049;-65
2021/09/30 12:13:34;;;;;;;3.88;1.52;;;;;;;15.10;49.40;99971.38;2619949;54;20034;-65
2021/09/30 12:16:08;;;;;;;4.28;1.42;;;;;;;14.98;49.30;99975.56;2618881;54;20056;-65
2021/09/30 12:18:37;;;;;;;4.53;1.38;;;;;;;14.90;49.62;99966.88;2619419;54;20046;-65
2021/09/30 12:21:07;;;;;;;4.15;1.55;;;;;;;14.99;49.77;99965.72;2619134;54;20030;-63
2021/09/30 12:23:40;;;;;;;4.13;1.20;;;;;;;14.94;50.00;99963.66;2618735;54;20048;-64
2021/09/30 12:26:13;;;;;;;4.18;1.60;;;;;;;14.86;49.76;99961.94;2619991;54;20043;-64
2021/09/30 12:28:47;;;;;;;2.45;1.38;;;;;;;14.74;49.86;99952.00;2620343;54;20022;-64
2021/09/30 12:31:17;;;;;;;6.45;1.50;;;;;;;14.63;49.29;99952.53;2619665;54;20027;-64
2021/09/30 12:33:47;;;;;;;5.40;1.48;;;;;;;14.57;49.21;99952.28;2620301;54;20027;-64
2021/09/30 12:36:17;;;;;;;2.35;1.13;;;;;;;14.57;48.89;99956.75;2620370;54;20026;-64
2021/09/30 12:39:01;;;;;;;3.60;1.70;;;;;;;14.61;49.22;99945.56;2621164;54;20033;-64
